Terminal Aerodrome Forecast
Issued by NWS

Home | Current Version | Previous Version | Text Only | Print | Product List | Glossary On
Versions: 1 2 3 4 5 6 7 8 9 10 11 12 13 14 15 16 17 18 19
000
FTUS41 KPBZ 161721
TAFDUJ
TAF
KDUJ 161721Z 1618/1718 32006KT P6SM FEW050
     FM170600 00000KT 3SM BR SCT070
     FM170900 00000KT 1SM BR SCT070
     FM171200 11004KT P6SM BKN060
     FM171600 15005KT P6SM VCTS BKN060CB=

USA.gov is the U.S. government's official web portal to all federal, state and local government web resources and services.